sensor_id;sensor_type;location;lat;lon;timestamp;temperature;humidity
20057;DHT22;10189;49.546;7.906;2022-08-19T00:01:51;18.30;77.90
20057;DHT22;10189;49.546;7.906;2022-08-19T00:04:23;18.40;77.90
20057;DHT22;10189;49.546;7.906;2022-08-19T00:06:53;18.40;77.80
20057;DHT22;10189;49.546;7.906;2022-08-19T00:09:22;18.40;77.20
20057;DHT22;10189;49.546;7.906;2022-08-19T00:11:49;18.50;76.50
20057;DHT22;10189;49.546;7.906;2022-08-19T00:14:16;18.50;75.70
20057;DHT22;10189;49.546;7.906;2022-08-19T00:16:45;18.50;77.20
20057;DHT22;10189;49.546;7.906;2022-08-19T00:19:13;18.50;76.40
20057;DHT22;10189;49.546;7.906;2022-08-19T00:21:41;18.50;75.70
20057;DHT22;10189;49.546;7.906;2022-08-19T00:24:09;18.50;76.30
20057;DHT22;10189;49.546;7.906;2022-08-19T00:26:37;18.50;77.50
20057;DHT22;10189;49.546;7.906;2022-08-19T00:29:05;18.50;77.70
20057;DHT22;10189;49.546;7.906;2022-08-19T00:31:32;18.50;77.70
20057;DHT22;10189;49.546;7.906;2022-08-19T00:33:59;18.40;77.70
20057;DHT22;10189;49.546;7.906;2022-08-19T00:36:25;18.40;77.90
20057;DHT22;10189;49.546;7.906;2022-08-19T00:38:51;18.40;78.30
20057;DHT22;10189;49.546;7.906;2022-08-19T00:41:19;18.30;78.70
20057;DHT22;10189;49.546;7.906;2022-08-19T00:44:08;18.20;79.50
20057;DHT22;10189;49.546;7.906;2022-08-19T00:46:38;18.20;79.70
20057;DHT22;10189;49.546;7.906;2022-08-19T00:49:18;18.20;80.00
20057;DHT22;10189;49.546;7.906;2022-08-19T00:52:24;18.10;80.00
20057;DHT22;10189;49.546;7.906;2022-08-19T00:54:55;18.10;78.20
20057;DHT22;10189;49.546;7.906;2022-08-19T00:57:35;18.20;78.80
20057;DHT22;10189;49.546;7.906;2022-08-19T01:00:12;18.20;78.80
20057;DHT22;10189;49.546;7.906;2022-08-19T01:02:41;18.30;76.90
20057;DHT22;10189;49.546;7.906;2022-08-19T01:05:11;18.30;76.20
20057;DHT22;10189;49.546;7.906;2022-08-19T01:07:41;18.40;77.00
20057;DHT22;10189;49.546;7.906;2022-08-19T01:10:11;18.40;76.00
20057;DHT22;10189;49.546;7.906;2022-08-19T01:12:40;18.40;75.90
20057;DHT22;10189;49.546;7.906;2022-08-19T01:15:08;18.40;75.30
20057;DHT22;10189;49.546;7.906;2022-08-19T01:17:38;18.50;75.60
20057;DHT22;10189;49.546;7.906;2022-08-19T01:20:06;18.40;75.90
20057;DHT22;10189;49.546;7.906;2022-08-19T01:22:42;18.40;75.50
20057;DHT22;10189;49.546;7.906;2022-08-19T01:25:14;18.40;76.40
20057;DHT22;10189;49.546;7.906;2022-08-19T01:27:44;18.40;76.70
20057;DHT22;10189;49.546;7.906;2022-08-19T01:30:19;18.40;76.60
20057;DHT22;10189;49.546;7.906;2022-08-19T01:32:49;18.40;77.60
20057;DHT22;10189;49.546;7.906;2022-08-19T01:35:16;18.30;78.00
20057;DHT22;10189;49.546;7.906;2022-08-19T01:38:07;18.20;78.80
20057;DHT22;10189;49.546;7.906;2022-08-19T01:40:43;18.10;79.20
20057;DHT22;10189;49.546;7.906;2022-08-19T01:43:10;18.10;79.30
20057;DHT22;10189;49.546;7.906;2022-08-19T01:45:36;18.00;79.50
20057;DHT22;10189;49.546;7.906;2022-08-19T01:48:06;18.00;79.60
20057;DHT22;10189;49.546;7.906;2022-08-19T01:50:33;17.90;79.80
20057;DHT22;10189;49.546;7.906;2022-08-19T01:53:02;17.80;80.20
20057;DHT22;10189;49.546;7.906;2022-08-19T01:55:30;17.80;80.70
20057;DHT22;10189;49.546;7.906;2022-08-19T01:57:58;17.70;81.20
20057;DHT22;10189;49.546;7.906;2022-08-19T02:00:29;17.70;81.30
20057;DHT22;10189;49.546;7.906;2022-08-19T02:02:57;17.70;81.70
20057;DHT22;10189;49.546;7.906;2022-08-19T02:05:23;17.70;82.10
20057;DHT22;10189;49.546;7.906;2022-08-19T02:07:50;17.60;82.60
20057;DHT22;10189;49.546;7.906;2022-08-19T02:10:19;17.50;82.50
20057;DHT22;10189;49.546;7.906;2022-08-19T02:12:47;17.50;82.60
20057;DHT22;10189;49.546;7.906;2022-08-19T02:15:15;17.50;82.60
20057;DHT22;10189;49.546;7.906;2022-08-19T02:17:42;17.40;82.80
20057;DHT22;10189;49.546;7.906;2022-08-19T02:20:08;17.40;82.90
20057;DHT22;10189;49.546;7.906;2022-08-19T02:22:35;17.40;82.10
20057;DHT22;10189;49.546;7.906;2022-08-19T02:25:01;17.50;81.00
20057;DHT22;10189;49.546;7.906;2022-08-19T02:27:29;17.50;81.40
20057;DHT22;10189;49.546;7.906;2022-08-19T02:29:56;17.60;81.30
20057;DHT22;10189;49.546;7.906;2022-08-19T02:32:22;17.60;81.20
20057;DHT22;10189;49.546;7.906;2022-08-19T02:34:48;17.50;80.60
20057;DHT22;10189;49.546;7.906;2022-08-19T02:37:14;17.60;80.70
20057;DHT22;10189;49.546;7.906;2022-08-19T02:39:59;17.50;80.60
20057;DHT22;10189;49.546;7.906;2022-08-19T02:42:25;17.60;80.50
20057;DHT22;10189;49.546;7.906;2022-08-19T02:44:51;17.60;81.40
20057;DHT22;10189;49.546;7.906;2022-08-19T02:47:18;17.60;81.50
20057;DHT22;10189;49.546;7.906;2022-08-19T02:49:45;17.50;81.80
20057;DHT22;10189;49.546;7.906;2022-08-19T02:52:11;17.50;81.70
20057;DHT22;10189;49.546;7.906;2022-08-19T02:54:38;17.50;81.30
20057;DHT22;10189;49.546;7.906;2022-08-19T02:57:05;17.50;79.70
20057;DHT22;10189;49.546;7.906;2022-08-19T02:59:32;17.50;80.80
20057;DHT22;10189;49.546;7.906;2022-08-19T03:01:58;17.60;79.80
20057;DHT22;10189;49.546;7.906;2022-08-19T03:04:24;17.60;80.10
20057;DHT22;10189;49.546;7.906;2022-08-19T03:06:51;17.60;79.20
20057;DHT22;10189;49.546;7.906;2022-08-19T03:09:18;17.60;78.70
20057;DHT22;10189;49.546;7.906;2022-08-19T03:11:45;17.70;78.10
20057;DHT22;10189;49.546;7.906;2022-08-19T03:14:12;17.60;78.20
20057;DHT22;10189;49.546;7.906;2022-08-19T03:16:44;17.60;79.10
20057;DHT22;10189;49.546;7.906;2022-08-19T03:19:13;17.60;79.70
20057;DHT22;10189;49.546;7.906;2022-08-19T03:21:42;17.60;80.00
20057;DHT22;10189;49.546;7.906;2022-08-19T03:24:10;17.50;80.40
20057;DHT22;10189;49.546;7.906;2022-08-19T03:26:41;17.50;81.00
20057;DHT22;10189;49.546;7.906;2022-08-19T03:29:14;17.40;81.60
20057;DHT22;10189;49.546;7.906;2022-08-19T03:31:43;17.30;81.90
20057;DHT22;10189;49.546;7.906;2022-08-19T03:34:16;17.30;82.50
20057;DHT22;10189;49.546;7.906;2022-08-19T03:36:45;17.20;82.20
20057;DHT22;10189;49.546;7.906;2022-08-19T03:39:11;17.20;82.90
20057;DHT22;10189;49.546;7.906;2022-08-19T03:41:40;17.20;83.30
20057;DHT22;10189;49.546;7.906;2022-08-19T03:44:07;17.20;82.90
20057;DHT22;10189;49.546;7.906;2022-08-19T03:46:35;17.20;82.10
20057;DHT22;10189;49.546;7.906;2022-08-19T03:49:03;17.30;81.10
20057;DHT22;10189;49.546;7.906;2022-08-19T03:51:38;17.30;81.40
20057;DHT22;10189;49.546;7.906;2022-08-19T03:54:06;17.40;80.40
20057;DHT22;10189;49.546;7.906;2022-08-19T03:56:34;17.50;79.90
20057;DHT22;10189;49.546;7.906;2022-08-19T03:59:04;17.60;79.30
20057;DHT22;10189;49.546;7.906;2022-08-19T04:01:31;17.60;79.50
20057;DHT22;10189;49.546;7.906;2022-08-19T04:03:59;17.70;78.60
20057;DHT22;10189;49.546;7.906;2022-08-19T04:06:29;17.70;78.20
20057;DHT22;10189;49.546;7.906;2022-08-19T04:08:58;17.70;78.60
20057;DHT22;10189;49.546;7.906;2022-08-19T04:11:45;17.70;78.20
20057;DHT22;10189;49.546;7.906;2022-08-19T04:14:19;17.80;77.80
20057;DHT22;10189;49.546;7.906;2022-08-19T04:16:48;17.70;77.40
20057;DHT22;10189;49.546;7.906;2022-08-19T04:19:15;17.70;77.70
20057;DHT22;10189;49.546;7.906;2022-08-19T04:21:44;17.70;77.50
20057;DHT22;10189;49.546;7.906;2022-08-19T04:24:13;17.70;77.80
20057;DHT22;10189;49.546;7.906;2022-08-19T04:26:40;17.60;77.80
20057;DHT22;10189;49.546;7.906;2022-08-19T04:29:09;17.60;78.20
20057;DHT22;10189;49.546;7.906;2022-08-19T04:31:37;17.60;78.10
20057;DHT22;10189;49.546;7.906;2022-08-19T04:34:08;17.60;79.10
20057;DHT22;10189;49.546;7.906;2022-08-19T04:36:40;17.50;78.60
20057;DHT22;10189;49.546;7.906;2022-08-19T04:39:10;17.50;78.50
20057;DHT22;10189;49.546;7.906;2022-08-19T04:41:38;17.40;78.80
20057;DHT22;10189;49.546;7.906;2022-08-19T04:44:23;17.40;78.90
20057;DHT22;10189;49.546;7.906;2022-08-19T04:46:50;17.40;79.10
20057;DHT22;10189;49.546;7.906;2022-08-19T04:49:19;17.30;79.40
20057;DHT22;10189;49.546;7.906;2022-08-19T04:51:48;17.30;79.40
20057;DHT22;10189;49.546;7.906;2022-08-19T04:54:17;17.20;79.70
20057;DHT22;10189;49.546;7.906;2022-08-19T04:56:43;17.20;80.00
20057;DHT22;10189;49.546;7.906;2022-08-19T04:59:09;17.10;80.20
20057;DHT22;10189;49.546;7.906;2022-08-19T05:01:36;17.10;79.90
20057;DHT22;10189;49.546;7.906;2022-08-19T05:04:05;17.20;80.00
20057;DHT22;10189;49.546;7.906;2022-08-19T05:06:33;17.20;80.00
20057;DHT22;10189;49.546;7.906;2022-08-19T05:09:04;17.20;79.80
20057;DHT22;10189;49.546;7.906;2022-08-19T05:11:35;17.20;79.70
20057;DHT22;10189;49.546;7.906;2022-08-19T05:14:05;17.30;79.90
20057;DHT22;10189;49.546;7.906;2022-08-19T05:16:32;17.30;80.10
20057;DHT22;10189;49.546;7.906;2022-08-19T05:18:59;17.30;80.20
20057;DHT22;10189;49.546;7.906;2022-08-19T05:21:44;17.40;80.40
20057;DHT22;10189;49.546;7.906;2022-08-19T05:24:33;17.50;80.00
20057;DHT22;10189;49.546;7.906;2022-08-19T05:27:02;17.60;79.60
20057;DHT22;10189;49.546;7.906;2022-08-19T05:29:30;17.70;79.20
20057;DHT22;10189;49.546;7.906;2022-08-19T05:31:57;17.80;78.90
20057;DHT22;10189;49.546;7.906;2022-08-19T05:34:26;18.00;78.40
20057;DHT22;10189;49.546;7.906;2022-08-19T05:36:57;18.20;77.70
20057;DHT22;10189;49.546;7.906;2022-08-19T05:39:28;18.30;76.60
20057;DHT22;10189;49.546;7.906;2022-08-19T05:41:58;18.50;76.20
20057;DHT22;10189;49.546;7.906;2022-08-19T05:44:27;18.60;76.10
20057;DHT22;10189;49.546;7.906;2022-08-19T05:46:58;18.80;75.90
20057;DHT22;10189;49.546;7.906;2022-08-19T05:49:27;18.90;74.80
20057;DHT22;10189;49.546;7.906;2022-08-19T05:51:54;19.10;74.10
20057;DHT22;10189;49.546;7.906;2022-08-19T05:54:21;19.20;72.70
20057;DHT22;10189;49.546;7.906;2022-08-19T05:56:50;19.30;73.10
20057;DHT22;10189;49.546;7.906;2022-08-19T05:59:18;19.30;73.10
20057;DHT22;10189;49.546;7.906;2022-08-19T06:01:48;19.50;72.70
20057;DHT22;10189;49.546;7.906;2022-08-19T06:04:18;19.50;72.30
20057;DHT22;10189;49.546;7.906;2022-08-19T06:06:46;19.50;72.70
20057;DHT22;10189;49.546;7.906;2022-08-19T06:09:13;19.40;72.30
20057;DHT22;10189;49.546;7.906;2022-08-19T06:11:45;19.70;72.20
20057;DHT22;10189;49.546;7.906;2022-08-19T06:14:17;20.00;71.30
20057;DHT22;10189;49.546;7.906;2022-08-19T06:16:48;20.30;69.00
20057;DHT22;10189;49.546;7.906;2022-08-19T06:19:19;20.30;68.60
20057;DHT22;10189;49.546;7.906;2022-08-19T06:21:49;20.20;68.80
20057;DHT22;10189;49.546;7.906;2022-08-19T06:24:19;20.30;69.10
20057;DHT22;10189;49.546;7.906;2022-08-19T06:26:49;20.40;67.90
20057;DHT22;10189;49.546;7.906;2022-08-19T06:29:19;20.30;67.50
20057;DHT22;10189;49.546;7.906;2022-08-19T06:31:50;20.30;68.50
20057;DHT22;10189;49.546;7.906;2022-08-19T06:34:18;20.20;68.60
20057;DHT22;10189;49.546;7.906;2022-08-19T06:36:47;20.10;69.20
20057;DHT22;10189;49.546;7.906;2022-08-19T06:39:23;20.10;69.60
20057;DHT22;10189;49.546;7.906;2022-08-19T06:41:54;20.10;70.30
20057;DHT22;10189;49.546;7.906;2022-08-19T06:44:24;20.30;70.70
20057;DHT22;10189;49.546;7.906;2022-08-19T06:46:53;20.60;69.50
20057;DHT22;10189;49.546;7.906;2022-08-19T06:49:19;21.00;68.20
20057;DHT22;10189;49.546;7.906;2022-08-19T06:51:47;21.30;67.20
20057;DHT22;10189;49.546;7.906;2022-08-19T06:54:15;21.50;66.40
20057;DHT22;10189;49.546;7.906;2022-08-19T06:56:42;21.50;65.70
20057;DHT22;10189;49.546;7.906;2022-08-19T06:59:14;21.70;65.80
20057;DHT22;10189;49.546;7.906;2022-08-19T07:01:45;21.80;65.10
20057;DHT22;10189;49.546;7.906;2022-08-19T07:04:19;21.80;65.00
20057;DHT22;10189;49.546;7.906;2022-08-19T07:06:48;22.00;65.20
20057;DHT22;10189;49.546;7.906;2022-08-19T07:09:16;22.10;63.80
20057;DHT22;10189;49.546;7.906;2022-08-19T07:11:48;22.10;64.50
20057;DHT22;10189;49.546;7.906;2022-08-19T07:14:18;22.20;65.10
20057;DHT22;10189;49.546;7.906;2022-08-19T07:16:47;22.50;63.80
20057;DHT22;10189;49.546;7.906;2022-08-19T07:19:16;22.60;62.00
20057;DHT22;10189;49.546;7.906;2022-08-19T07:21:42;22.60;63.30
20057;DHT22;10189;49.546;7.906;2022-08-19T07:24:09;22.60;62.90
20057;DHT22;10189;49.546;7.906;2022-08-19T07:26:41;22.60;62.60
20057;DHT22;10189;49.546;7.906;2022-08-19T07:29:09;22.60;63.40
20057;DHT22;10189;49.546;7.906;2022-08-19T07:31:36;22.70;62.50
20057;DHT22;10189;49.546;7.906;2022-08-19T07:34:05;22.70;63.00
20057;DHT22;10189;49.546;7.906;2022-08-19T07:36:34;22.90;61.20
20057;DHT22;10189;49.546;7.906;2022-08-19T07:39:08;22.70;61.60
20057;DHT22;10189;49.546;7.906;2022-08-19T07:41:56;22.70;62.50
20057;DHT22;10189;49.546;7.906;2022-08-19T07:44:24;22.80;62.50
20057;DHT22;10189;49.546;7.906;2022-08-19T07:46:53;22.90;62.60
20057;DHT22;10189;49.546;7.906;2022-08-19T07:49:21;23.30;61.60
20057;DHT22;10189;49.546;7.906;2022-08-19T07:51:51;23.70;60.60
20057;DHT22;10189;49.546;7.906;2022-08-19T07:54:21;23.60;60.70
20057;DHT22;10189;49.546;7.906;2022-08-19T07:56:49;23.80;60.70
20057;DHT22;10189;49.546;7.906;2022-08-19T07:59:17;24.20;59.60
20057;DHT22;10189;49.546;7.906;2022-08-19T08:01:44;24.20;58.90
20057;DHT22;10189;49.546;7.906;2022-08-19T08:04:10;23.80;59.50
20057;DHT22;10189;49.546;7.906;2022-08-19T08:06:55;23.90;60.60
20057;DHT22;10189;49.546;7.906;2022-08-19T08:09:42;24.30;59.60
20057;DHT22;10189;49.546;7.906;2022-08-19T08:12:34;24.60;58.80
20057;DHT22;10189;49.546;7.906;2022-08-19T08:15:10;24.50;58.20
20057;DHT22;10189;49.546;7.906;2022-08-19T08:17:42;24.30;59.10
20057;DHT22;10189;49.546;7.906;2022-08-19T08:20:10;24.20;57.40
20057;DHT22;10189;49.546;7.906;2022-08-19T08:22:37;24.00;58.60
20057;DHT22;10189;49.546;7.906;2022-08-19T08:25:26;24.10;59.20
20057;DHT22;10189;49.546;7.906;2022-08-19T08:27:52;23.90;59.10
20057;DHT22;10189;49.546;7.906;2022-08-19T08:30:25;23.90;58.90
20057;DHT22;10189;49.546;7.906;2022-08-19T08:32:52;23.70;58.50
20057;DHT22;10189;49.546;7.906;2022-08-19T08:35:20;23.50;60.40
20057;DHT22;10189;49.546;7.906;2022-08-19T08:37:49;23.40;60.40
20057;DHT22;10189;49.546;7.906;2022-08-19T08:40:39;23.40;59.70
20057;DHT22;10189;49.546;7.906;2022-08-19T08:43:27;23.30;59.90
20057;DHT22;10189;49.546;7.906;2022-08-19T08:46:05;23.50;59.80
20057;DHT22;10189;49.546;7.906;2022-08-19T08:48:56;23.90;59.20
20057;DHT22;10189;49.546;7.906;2022-08-19T08:51:36;24.20;57.50
20057;DHT22;10189;49.546;7.906;2022-08-19T08:54:09;24.20;57.20
20057;DHT22;10189;49.546;7.906;2022-08-19T08:56:40;24.10;58.70
20057;DHT22;10189;49.546;7.906;2022-08-19T08:59:24;24.00;58.00
20057;DHT22;10189;49.546;7.906;2022-08-19T09:01:56;23.90;58.50
20057;DHT22;10189;49.546;7.906;2022-08-19T09:04:22;24.30;59.10
20057;DHT22;10189;49.546;7.906;2022-08-19T09:07:10;24.40;56.70
20057;DHT22;10189;49.546;7.906;2022-08-19T09:10:28;24.60;56.00
20057;DHT22;10189;49.546;7.906;2022-08-19T09:15:37;24.60;55.30
20057;DHT22;10189;49.546;7.906;2022-08-19T09:18:08;24.60;55.80
20057;DHT22;10189;49.546;7.906;2022-08-19T09:20:34;24.80;55.90
20057;DHT22;10189;49.546;7.906;2022-08-19T09:23:00;24.60;55.70
20057;DHT22;10189;49.546;7.906;2022-08-19T09:25:26;24.50;56.20
20057;DHT22;10189;49.546;7.906;2022-08-19T09:27:53;24.30;56.40
20057;DHT22;10189;49.546;7.906;2022-08-19T09:30:27;24.50;56.70
20057;DHT22;10189;49.546;7.906;2022-08-19T09:32:55;24.60;57.40
20057;DHT22;10189;49.546;7.906;2022-08-19T09:35:24;25.10;56.90
20057;DHT22;10189;49.546;7.906;2022-08-19T09:37:52;25.00;56.00
20057;DHT22;10189;49.546;7.906;2022-08-19T09:40:19;25.10;55.90
20057;DHT22;10189;49.546;7.906;2022-08-19T09:42:46;25.10;55.80
20057;DHT22;10189;49.546;7.906;2022-08-19T09:45:17;25.10;55.60
20057;DHT22;10189;49.546;7.906;2022-08-19T09:47:50;25.20;55.70
20057;DHT22;10189;49.546;7.906;2022-08-19T09:50:18;25.00;55.70
20057;DHT22;10189;49.546;7.906;2022-08-19T09:52:44;25.00;55.50
20057;DHT22;10189;49.546;7.906;2022-08-19T09:55:11;25.10;55.10
20057;DHT22;10189;49.546;7.906;2022-08-19T09:57:38;25.30;55.10
20057;DHT22;10189;49.546;7.906;2022-08-19T10:00:06;25.50;52.60
20057;DHT22;10189;49.546;7.906;2022-08-19T10:02:34;25.70;54.70
20057;DHT22;10189;49.546;7.906;2022-08-19T10:05:01;25.80;54.40
20057;DHT22;10189;49.546;7.906;2022-08-19T10:07:46;25.90;49.60
20057;DHT22;10189;49.546;7.906;2022-08-19T10:10:13;25.50;49.30
20057;DHT22;10189;49.546;7.906;2022-08-19T10:12:39;25.30;50.90
20057;DHT22;10189;49.546;7.906;2022-08-19T10:15:05;25.40;51.10
20057;DHT22;10189;49.546;7.906;2022-08-19T10:17:32;25.50;50.70
20057;DHT22;10189;49.546;7.906;2022-08-19T10:20:01;25.70;52.20
20057;DHT22;10189;49.546;7.906;2022-08-19T10:22:29;25.80;50.80
20057;DHT22;10189;49.546;7.906;2022-08-19T10:24:56;25.70;49.70
20057;DHT22;10189;49.546;7.906;2022-08-19T10:27:22;25.50;50.60
20057;DHT22;10189;49.546;7.906;2022-08-19T10:29:48;25.50;50.90
20057;DHT22;10189;49.546;7.906;2022-08-19T10:32:14;25.60;51.00
20057;DHT22;10189;49.546;7.906;2022-08-19T10:34:41;25.60;47.30
20057;DHT22;10189;49.546;7.906;2022-08-19T10:37:06;25.40;45.60
20057;DHT22;10189;49.546;7.906;2022-08-19T10:39:34;25.30;47.10
20057;DHT22;10189;49.546;7.906;2022-08-19T10:42:06;25.30;47.20
20057;DHT22;10189;49.546;7.906;2022-08-19T10:44:32;25.30;47.60
20057;DHT22;10189;49.546;7.906;2022-08-19T10:47:01;25.50;46.20
20057;DHT22;10189;49.546;7.906;2022-08-19T10:49:28;25.60;48.00
20057;DHT22;10189;49.546;7.906;2022-08-19T10:51:55;25.90;46.30
20057;DHT22;10189;49.546;7.906;2022-08-19T10:54:40;25.90;45.90
20057;DHT22;10189;49.546;7.906;2022-08-19T10:57:25;26.00;44.00
20057;DHT22;10189;49.546;7.906;2022-08-19T10:59:55;26.00;45.00
20057;DHT22;10189;49.546;7.906;2022-08-19T11:02:21;26.20;44.80
20057;DHT22;10189;49.546;7.906;2022-08-19T11:04:48;26.40;45.20
20057;DHT22;10189;49.546;7.906;2022-08-19T11:07:15;26.50;44.00
20057;DHT22;10189;49.546;7.906;2022-08-19T11:09:42;26.20;43.60
20057;DHT22;10189;49.546;7.906;2022-08-19T11:12:09;26.10;43.50
20057;DHT22;10189;49.546;7.906;2022-08-19T11:14:38;26.10;45.40
20057;DHT22;10189;49.546;7.906;2022-08-19T11:17:05;26.00;43.60
20057;DHT22;10189;49.546;7.906;2022-08-19T11:19:32;26.20;44.70
20057;DHT22;10189;49.546;7.906;2022-08-19T11:21:59;26.50;44.80
20057;DHT22;10189;49.546;7.906;2022-08-19T11:24:27;26.80;43.90
20057;DHT22;10189;49.546;7.906;2022-08-19T11:26:54;26.90;42.60
20057;DHT22;10189;49.546;7.906;2022-08-19T11:29:27;26.70;42.00
20057;DHT22;10189;49.546;7.906;2022-08-19T11:31:54;26.50;42.50
20057;DHT22;10189;49.546;7.906;2022-08-19T11:34:23;26.70;44.40
20057;DHT22;10189;49.546;7.906;2022-08-19T11:36:53;26.90;43.70
20057;DHT22;10189;49.546;7.906;2022-08-19T11:39:23;26.90;42.10
20057;DHT22;10189;49.546;7.906;2022-08-19T11:41:50;27.10;42.60
20057;DHT22;10189;49.546;7.906;2022-08-19T11:44:18;27.20;42.90
20057;DHT22;10189;49.546;7.906;2022-08-19T11:46:45;27.30;41.80
20057;DHT22;10189;49.546;7.906;2022-08-19T11:49:13;27.20;41.90
20057;DHT22;10189;49.546;7.906;2022-08-19T11:51:41;27.30;41.40
20057;DHT22;10189;49.546;7.906;2022-08-19T11:54:12;27.40;41.70
20057;DHT22;10189;49.546;7.906;2022-08-19T11:56:40;27.50;41.20
20057;DHT22;10189;49.546;7.906;2022-08-19T11:59:06;27.50;41.70
20057;DHT22;10189;49.546;7.906;2022-08-19T12:01:33;27.10;42.20
20057;DHT22;10189;49.546;7.906;2022-08-19T12:04:00;26.90;42.10
20057;DHT22;10189;49.546;7.906;2022-08-19T12:06:29;27.00;42.00
20057;DHT22;10189;49.546;7.906;2022-08-19T12:08:59;27.00;41.60
20057;DHT22;10189;49.546;7.906;2022-08-19T12:11:30;27.30;42.10
20057;DHT22;10189;49.546;7.906;2022-08-19T12:13:57;27.60;40.90
20057;DHT22;10189;49.546;7.906;2022-08-19T12:16:27;27.60;40.70
20057;DHT22;10189;49.546;7.906;2022-08-19T12:18:55;27.70;40.40
20057;DHT22;10189;49.546;7.906;2022-08-19T12:21:24;27.70;40.10
20057;DHT22;10189;49.546;7.906;2022-08-19T12:23:55;27.80;39.40
20057;DHT22;10189;49.546;7.906;2022-08-19T12:26:24;27.60;40.50
20057;DHT22;10189;49.546;7.906;2022-08-19T12:28:51;27.60;40.40
20057;DHT22;10189;49.546;7.906;2022-08-19T12:31:18;27.90;40.20
20057;DHT22;10189;49.546;7.906;2022-08-19T12:33:46;27.80;39.00
20057;DHT22;10189;49.546;7.906;2022-08-19T12:36:15;27.70;38.90
20057;DHT22;10189;49.546;7.906;2022-08-19T12:38:41;27.60;39.30
20057;DHT22;10189;49.546;7.906;2022-08-19T12:41:11;27.80;38.90
20057;DHT22;10189;49.546;7.906;2022-08-19T12:43:38;28.10;38.90
20057;DHT22;10189;49.546;7.906;2022-08-19T12:46:05;28.00;39.10
20057;DHT22;10189;49.546;7.906;2022-08-19T12:48:32;28.30;39.20
20057;DHT22;10189;49.546;7.906;2022-08-19T12:50:59;28.50;38.50
20057;DHT22;10189;49.546;7.906;2022-08-19T12:53:25;28.50;38.00
20057;DHT22;10189;49.546;7.906;2022-08-19T12:55:56;28.50;38.20
20057;DHT22;10189;49.546;7.906;2022-08-19T12:58:23;28.40;37.10
20057;DHT22;10189;49.546;7.906;2022-08-19T13:00:49;28.40;37.20
20057;DHT22;10189;49.546;7.906;2022-08-19T13:03:15;28.60;38.60
20057;DHT22;10189;49.546;7.906;2022-08-19T13:05:41;28.90;38.20
20057;DHT22;10189;49.546;7.906;2022-08-19T13:08:08;29.20;37.30
20057;DHT22;10189;49.546;7.906;2022-08-19T13:10:35;29.40;36.80
20057;DHT22;10189;49.546;7.906;2022-08-19T13:13:05;29.40;37.10
20057;DHT22;10189;49.546;7.906;2022-08-19T13:15:33;29.00;37.40
20057;DHT22;10189;49.546;7.906;2022-08-19T13:18:00;28.80;37.60
20057;DHT22;10189;49.546;7.906;2022-08-19T13:20:27;28.90;36.90
20057;DHT22;10189;49.546;7.906;2022-08-19T13:22:53;28.80;36.60
20057;DHT22;10189;49.546;7.906;2022-08-19T13:25:20;28.90;36.00
20057;DHT22;10189;49.546;7.906;2022-08-19T13:27:48;29.20;37.30
20057;DHT22;10189;49.546;7.906;2022-08-19T13:30:17;28.90;36.50
20057;DHT22;10189;49.546;7.906;2022-08-19T13:33:04;28.90;37.90
20057;DHT22;10189;49.546;7.906;2022-08-19T13:35:50;28.80;36.50
20057;DHT22;10189;49.546;7.906;2022-08-19T13:38:23;28.80;38.00
20057;DHT22;10189;49.546;7.906;2022-08-19T13:40:52;28.50;37.70
20057;DHT22;10189;49.546;7.906;2022-08-19T13:43:21;28.20;38.70
20057;DHT22;10189;49.546;7.906;2022-08-19T13:45:50;28.10;38.80
20057;DHT22;10189;49.546;7.906;2022-08-19T13:48:19;28.00;38.70
20057;DHT22;10189;49.546;7.906;2022-08-19T13:50:45;27.80;39.20
20057;DHT22;10189;49.546;7.906;2022-08-19T13:53:14;27.80;39.80
20057;DHT22;10189;49.546;7.906;2022-08-19T13:55:43;27.90;39.00
20057;DHT22;10189;49.546;7.906;2022-08-19T13:58:11;27.90;39.10
20057;DHT22;10189;49.546;7.906;2022-08-19T14:00:40;27.90;38.60
20057;DHT22;10189;49.546;7.906;2022-08-19T14:03:08;28.20;37.80
20057;DHT22;10189;49.546;7.906;2022-08-19T14:05:36;28.30;37.30
20057;DHT22;10189;49.546;7.906;2022-08-19T14:08:02;28.40;37.10
20057;DHT22;10189;49.546;7.906;2022-08-19T14:10:29;28.20;37.80
20057;DHT22;10189;49.546;7.906;2022-08-19T14:12:59;28.00;37.80
20057;DHT22;10189;49.546;7.906;2022-08-19T14:15:28;27.70;38.50
20057;DHT22;10189;49.546;7.906;2022-08-19T14:17:55;27.40;39.00
20057;DHT22;10189;49.546;7.906;2022-08-19T14:20:22;27.20;39.90
20057;DHT22;10189;49.546;7.906;2022-08-19T14:22:49;27.30;40.40
20057;DHT22;10189;49.546;7.906;2022-08-19T14:25:18;27.40;40.10
20057;DHT22;10189;49.546;7.906;2022-08-19T14:27:46;27.50;39.90
20057;DHT22;10189;49.546;7.906;2022-08-19T14:30:17;27.70;40.20
20057;DHT22;10189;49.546;7.906;2022-08-19T14:32:46;27.90;39.30
20057;DHT22;10189;49.546;7.906;2022-08-19T14:35:13;28.10;38.90
20057;DHT22;10189;49.546;7.906;2022-08-19T14:37:44;28.20;38.30
20057;DHT22;10189;49.546;7.906;2022-08-19T14:40:11;28.20;38.40
20057;DHT22;10189;49.546;7.906;2022-08-19T14:42:39;28.20;38.60
20057;DHT22;10189;49.546;7.906;2022-08-19T14:45:05;28.40;38.60
20057;DHT22;10189;49.546;7.906;2022-08-19T14:47:32;28.50;37.20
20057;DHT22;10189;49.546;7.906;2022-08-19T14:49:58;28.60;37.50
20057;DHT22;10189;49.546;7.906;2022-08-19T14:52:24;28.60;38.00
20057;DHT22;10189;49.546;7.906;2022-08-19T14:54:50;28.70;38.50
20057;DHT22;10189;49.546;7.906;2022-08-19T14:57:16;28.70;38.70
20057;DHT22;10189;49.546;7.906;2022-08-19T14:59:43;28.70;37.90
20057;DHT22;10189;49.546;7.906;2022-08-19T15:02:10;28.30;38.10
20057;DHT22;10189;49.546;7.906;2022-08-19T15:04:37;28.10;38.90
20057;DHT22;10189;49.546;7.906;2022-08-19T15:07:03;28.10;39.30
20057;DHT22;10189;49.546;7.906;2022-08-19T15:09:31;28.10;39.40
20057;DHT22;10189;49.546;7.906;2022-08-19T15:11:58;28.10;39.60
20057;DHT22;10189;49.546;7.906;2022-08-19T15:14:26;28.10;40.40
20057;DHT22;10189;49.546;7.906;2022-08-19T15:16:53;28.00;40.30
20057;DHT22;10189;49.546;7.906;2022-08-19T15:19:19;27.90;40.30
20057;DHT22;10189;49.546;7.906;2022-08-19T15:21:46;27.90;39.30
20057;DHT22;10189;49.546;7.906;2022-08-19T15:24:11;27.70;39.70
20057;DHT22;10189;49.546;7.906;2022-08-19T15:26:37;27.60;40.40
20057;DHT22;10189;49.546;7.906;2022-08-19T15:29:04;27.80;40.20
20057;DHT22;10189;49.546;7.906;2022-08-19T15:31:31;27.80;39.60
20057;DHT22;10189;49.546;7.906;2022-08-19T15:34:02;27.80;39.60
20057;DHT22;10189;49.546;7.906;2022-08-19T15:36:31;27.80;39.40
20057;DHT22;10189;49.546;7.906;2022-08-19T15:38:57;27.90;39.90
20057;DHT22;10189;49.546;7.906;2022-08-19T15:41:27;27.90;38.60
20057;DHT22;10189;49.546;7.906;2022-08-19T15:44:00;27.80;38.30
20057;DHT22;10189;49.546;7.906;2022-08-19T15:46:31;27.60;38.80
20057;DHT22;10189;49.546;7.906;2022-08-19T15:48:59;27.70;39.60